Time;durP1;ratioP1;P1;durP2;ratioP2;P2;SDS_P1;SDS_P2;PMS_P1;PMS_P2;Temp;Humidity;BMP_temperature;BMP_pressure;BME280_temperature;BME280_humidity;BME280_pressure;Samples;Min_cycle;Max_cycle;Signal;HPM_P1;HPM_P2
2022/12/05 00:00:13;;;;;;;10.68;5.45;;;;;;;4.32;100.00;101639.16;4999474;28;20439;-75
2022/12/05 00:02:38;;;;;;;4.43;3.03;;;;;;;4.22;100.00;101639.97;5048395;28;20026;-75
2022/12/05 00:05:04;;;;;;;6.28;3.42;;;;;;;4.11;100.00;101630.94;5032102;28;20068;-75
2022/12/05 00:07:30;;;;;;;8.05;4.75;;;;;;;4.15;100.00;101644.88;5031839;28;20037;-75
2022/12/05 00:09:56;;;;;;;6.47;3.92;;;;;;;4.25;100.00;101634.41;4999311;28;20037;-75
2022/12/05 00:12:21;;;;;;;9.07;4.40;;;;;;;4.34;100.00;101650.56;4999507;28;20040;-77
2022/12/05 00:14:47;;;;;;;8.18;4.78;;;;;;;4.30;100.00;101651.75;4999450;28;20037;-75
2022/12/05 00:17:13;;;;;;;5.63;3.80;;;;;;;4.39;100.00;101655.53;4999535;28;20069;-76
2022/12/05 00:19:39;;;;;;;9.18;4.32;;;;;;;4.40;100.00;101651.91;5003061;28;20529;-73
2022/12/05 00:22:04;;;;;;;6.20;4.38;;;;;;;4.38;100.00;101653.84;5035978;28;20028;-76
2022/12/05 00:24:30;;;;;;;8.80;4.53;;;;;;;4.37;100.00;101653.00;5003228;28;20064;-75
2022/12/05 00:26:56;;;;;;;9.02;4.68;;;;;;;4.39;100.00;101656.41;5002831;28;20033;-75
2022/12/05 00:29:21;;;;;;;7.40;3.92;;;;;;;4.30;100.00;101651.75;5035431;28;20112;-75
2022/12/05 00:31:47;;;;;;;8.85;4.70;;;;;;;4.19;100.00;101641.03;5052350;28;20048;-75
2022/12/05 00:34:13;;;;;;;7.63;4.05;;;;;;;4.02;100.00;101644.06;5002804;28;20071;-75
2022/12/05 00:36:39;;;;;;;7.28;3.13;;;;;;;3.90;100.00;101644.00;5002900;28;20048;-74
2022/12/05 00:39:07;;;;;;;7.78;4.22;;;;;;;3.77;100.00;101637.88;5002678;28;20037;-75
2022/12/05 00:41:33;;;;;;;6.15;3.75;;;;;;;3.72;100.00;101634.69;5019028;28;20476;-76
2022/12/05 00:44:00;;;;;;;6.30;3.22;;;;;;;3.70;100.00;101653.41;5002656;28;20033;-75
2022/12/05 00:46:27;;;;;;;7.85;4.07;;;;;;;3.59;100.00;101655.97;5051651;28;20017;-75
2022/12/05 00:48:54;;;;;;;7.10;4.60;;;;;;;3.46;100.00;101666.63;5035373;28;20045;-74
2022/12/05 00:51:28;;;;;;;7.40;3.55;;;;;;;3.41;100.00;101668.75;5002675;28;20036;-74
2022/12/05 00:53:57;;;;;;;10.20;4.03;;;;;;;3.52;100.00;101670.69;5035379;28;20079;-75
2022/12/05 00:56:24;;;;;;;8.63;4.50;;;;;;;3.48;100.00;101661.22;5002293;28;20045;-75
2022/12/05 00:58:52;;;;;;;7.55;4.47;;;;;;;3.47;100.00;101670.16;5002487;28;20416;-74
2022/12/05 01:01:20;;;;;;;8.70;4.95;;;;;;;3.38;100.00;101682.25;5034965;28;20060;-74
2022/12/05 01:03:46;;;;;;;8.00;5.00;;;;;;;3.29;100.00;101680.25;5018724;28;20038;-74
2022/12/05 01:06:14;;;;;;;10.27;4.80;;;;;;;3.23;100.00;101683.34;5051594;28;20033;-74
2022/12/05 01:08:40;;;;;;;8.40;3.83;;;;;;;3.19;100.00;101690.66;5018345;28;20164;-74
2022/12/05 01:11:07;;;;;;;8.63;4.75;;;;;;;3.12;100.00;101683.22;5018220;28;20026;-74
2022/12/05 01:13:33;;;;;;;8.43;3.85;;;;;;;3.02;100.00;101689.16;5034516;28;20025;-74
2022/12/05 01:15:59;;;;;;;6.63;3.30;;;;;;;2.94;100.00;101680.88;5018159;28;20514;-74
2022/12/05 01:18:25;;;;;;;6.38;3.90;;;;;;;3.02;100.00;101681.19;5051099;28;20033;-74
2022/12/05 01:20:51;;;;;;;7.35;4.75;;;;;;;3.20;100.00;101688.84;5002307;28;20033;-75
2022/12/05 01:23:17;;;;;;;9.70;4.30;;;;;;;3.30;100.00;101685.44;5001816;28;20475;-74
2022/12/05 01:25:47;;;;;;;8.35;4.75;;;;;;;3.41;100.00;101694.50;5034825;28;20037;-75
2022/12/05 01:28:14;;;;;;;7.30;4.30;;;;;;;3.46;100.00;101703.00;5017876;28;20032;-74
2022/12/05 01:30:41;;;;;;;5.25;3.50;;;;;;;3.42;100.00;101689.09;5001576;28;20537;-74
2022/12/05 01:33:07;;;;;;;8.38;5.10;;;;;;;3.42;100.00;101694.41;5017828;28;20396;-74
2022/12/05 01:35:37;;;;;;;12.73;4.50;;;;;;;3.46;100.00;101695.88;5017759;28;20460;-74
2022/12/05 01:38:04;;;;;;;8.45;3.95;;;;;;;3.52;100.00;101702.59;5017852;28;20515;-74
2022/12/05 01:40:34;;;;;;;6.18;3.95;;;;;;;3.51;100.00;101690.25;5000967;28;20050;-74
2022/12/05 01:43:02;;;;;;;5.10;2.95;;;;;;;3.73;100.00;101700.22;5050010;28;20033;-75
2022/12/05 01:45:39;;;;;;;5.32;2.50;;;;;;;3.89;100.00;101703.50;5017998;28;20041;-74
2022/12/05 01:48:10;;;;;;;8.10;4.28;;;;;;;3.93;100.00;101696.16;5034324;28;20116;-75
2022/12/05 01:50:36;;;;;;;9.18;4.13;;;;;;;4.04;100.00;101711.34;5017771;28;20033;-74
2022/12/05 01:53:02;;;;;;;8.30;4.93;;;;;;;4.00;100.00;101701.91;5034479;28;20375;-74
2022/12/05 01:55:28;;;;;;;8.15;4.38;;;;;;;3.94;100.00;101711.16;5001112;28;20033;-74
2022/12/05 01:57:55;;;;;;;7.63;4.47;;;;;;;3.85;100.00;101701.16;5017586;28;20052;-75
2022/12/05 02:00:21;;;;;;;6.53;4.38;;;;;;;3.70;100.00;101695.97;5001018;28;20076;-74
2022/12/05 02:02:51;;;;;;;8.88;4.80;;;;;;;3.55;100.00;101693.53;5001194;28;20034;-74
2022/12/05 02:05:21;;;;;;;6.05;3.30;;;;;;;3.20;100.00;101681.75;5017652;28;20075;-73
2022/12/05 02:07:47;;;;;;;6.43;3.05;;;;;;;3.17;100.00;101691.72;5017236;28;20068;-74
2022/12/05 02:10:13;;;;;;;4.82;3.08;;;;;;;3.13;100.00;101690.25;5033483;28;20053;-74
2022/12/05 02:12:39;;;;;;;6.90;4.05;;;;;;;3.08;100.00;101690.56;5033458;28;20038;-75
2022/12/05 02:15:18;;;;;;;6.13;3.63;;;;;;;3.11;100.00;101705.44;5016969;28;20033;-74
2022/12/05 02:17:58;;;;;;;5.15;2.92;;;;;;;3.01;100.00;101702.53;5034553;28;20033;-74
2022/12/05 02:20:35;;;;;;;4.35;3.20;;;;;;;2.85;100.00;101689.44;5017297;28;20037;-74
2022/12/05 02:23:03;;;;;;;7.72;3.97;;;;;;;2.90;100.00;101705.91;5033417;28;20052;-75
2022/12/05 02:25:54;;;;;;;9.23;3.90;;;;;;;2.72;100.00;101708.00;5035006;28;20450;-74
2022/12/05 02:28:47;;;;;;;5.07;2.92;;;;;;;2.69;100.00;101702.03;5000688;28;20029;-75
2022/12/05 02:31:36;;;;;;;8.73;4.38;;;;;;;2.95;100.00;101706.47;5019343;28;20044;-74
2022/12/05 02:34:11;;;;;;;6.40;4.00;;;;;;;3.08;100.00;101707.34;5030253;28;20095;-74
2022/12/05 02:36:44;;;;;;;6.35;4.32;;;;;;;3.19;100.00;101713.75;5033035;28;20037;-74
2022/12/05 02:39:51;;;;;;;6.22;3.90;;;;;;;3.22;100.00;101718.84;5016786;28;20472;-74
2022/12/05 02:42:21;;;;;;;7.85;4.20;;;;;;;3.23;100.00;101718.75;4995358;28;20089;-76
2022/12/05 02:44:58;;;;;;;7.53;4.32;;;;;;;3.06;100.00;101703.09;5027250;28;20037;-74
2022/12/05 02:47:27;;;;;;;8.35;5.50;;;;;;;3.07;100.00;101715.44;5017151;28;20033;-75
2022/12/05 02:49:53;;;;;;;5.10;3.03;;;;;;;3.08;100.00;101719.78;5016697;28;20037;-74
2022/12/05 02:52:20;;;;;;;8.55;4.15;;;;;;;3.01;100.00;101723.78;5032919;28;20155;-75
2022/12/05 02:54:48;;;;;;;5.32;3.55;;;;;;;2.94;100.00;101707.44;5033327;28;20075;-74
2022/12/05 02:57:14;;;;;;;5.38;3.35;;;;;;;2.98;100.00;101716.03;5032661;28;20030;-74
2022/12/05 02:59:40;;;;;;;7.78;4.13;;;;;;;2.92;100.00;101714.66;5000187;28;20065;-75
2022/12/05 03:02:08;;;;;;;5.18;3.10;;;;;;;2.89;100.00;101725.47;5016348;28;20412;-74
2022/12/05 03:04:34;;;;;;;5.63;4.45;;;;;;;2.98;100.00;101722.19;5049175;28;20025;-74
2022/12/05 03:07:03;;;;;;;6.88;3.13;;;;;;;3.08;100.00;101728.59;4999726;28;20083;-74
2022/12/05 03:09:34;;;;;;;7.25;4.60;;;;;;;3.09;100.00;101727.63;5032468;28;20025;-74
2022/12/05 03:12:11;;;;;;;5.82;3.47;;;;;;;3.06;100.00;101722.53;4999988;28;20037;-75
2022/12/05 03:14:53;;;;;;;6.75;2.92;;;;;;;3.04;100.00;101721.81;5032511;28;20041;-74
2022/12/05 03:17:24;;;;;;;7.10;4.05;;;;;;;3.08;100.00;101717.13;5013570;28;20479;-74
2022/12/05 03:19:57;;;;;;;6.05;3.50;;;;;;;3.17;100.00;101723.63;5016559;28;20163;-75
2022/12/05 03:22:32;;;;;;;5.28;2.83;;;;;;;3.23;100.00;101723.22;5016223;28;20029;-74
2022/12/05 03:25:00;;;;;;;5.88;3.67;;;;;;;3.24;100.00;101722.25;5016043;28;20044;-74
2022/12/05 03:27:30;;;;;;;8.70;4.55;;;;;;;3.26;100.00;101729.16;5015826;28;20037;-74
2022/12/05 03:30:18;;;;;;;7.90;4.57;;;;;;;3.30;100.00;101724.47;5032618;28;20037;-74
2022/12/05 03:32:50;;;;;;;5.90;3.33;;;;;;;3.30;100.00;101732.44;4999704;28;20124;-74
2022/12/05 03:35:41;;;;;;;5.97;3.40;;;;;;;3.32;100.00;101741.19;5066011;28;20045;-74
2022/12/05 03:38:11;;;;;;;6.88;3.70;;;;;;;3.32;100.00;101743.84;4999868;28;20037;-75
2022/12/05 03:40:41;;;;;;;5.60;3.67;;;;;;;3.07;100.00;101707.47;5032465;28;20048;-74
2022/12/05 03:43:37;;;;;;;7.95;4.40;;;;;;;2.93;100.00;101689.78;5032310;28;20033;-74
2022/12/05 03:46:08;;;;;;;9.70;4.30;;;;;;;3.19;100.00;101748.28;5016003;28;20036;-74
2022/12/05 03:48:38;;;;;;;8.55;3.70;;;;;;;3.14;100.00;101745.09;5016052;28;20033;-74
2022/12/05 03:51:06;;;;;;;7.53;4.00;;;;;;;3.22;100.00;101748.91;5015895;28;20230;-74
2022/12/05 03:53:36;;;;;;;7.90;4.20;;;;;;;3.20;100.00;101739.34;5017818;28;20029;-74
2022/12/05 03:56:08;;;;;;;5.68;3.53;;;;;;;3.19;100.00;101741.16;5036429;28;20167;-75
2022/12/05 03:58:53;;;;;;;11.98;4.80;;;;;;;3.04;100.00;101745.72;5036220;28;20029;-74
2022/12/05 04:01:20;;;;;;;9.50;4.65;;;;;;;2.89;100.00;101752.03;5017567;28;20037;-74
2022/12/05 04:03:51;;;;;;;10.40;4.43;;;;;;;2.32;100.00;101693.84;5003635;28;20041;-75
2022/12/05 04:06:35;;;;;;;7.47;3.97;;;;;;;2.15;100.00;101738.22;5036339;28;20055;-74
2022/12/05 04:09:13;;;;;;;11.52;4.85;;;;;;;1.94;100.00;101747.53;5052341;28;20029;-74
2022/12/05 04:11:43;;;;;;;6.25;3.78;;;;;;;1.58;100.00;101730.28;5020121;28;20037;-74
2022/12/05 04:14:23;;;;;;;10.18;3.92;;;;;;;1.39;100.00;101743.81;5035950;28;20029;-74
2022/12/05 04:17:04;;;;;;;8.60;3.95;;;;;;;1.20;100.00;101743.22;5019343;28;20140;-74
2022/12/05 04:22:32;;;;;;;7.88;3.50;;;;;;;0.78;100.00;101748.28;5035831;28;20387;-74
2022/12/05 04:28:03;;;;;;;7.50;3.60;;;;;;;0.63;100.00;101747.34;5035652;28;20026;-74
2022/12/05 04:30:36;;;;;;;6.35;3.55;;;;;;;0.64;100.00;101764.97;5036682;28;20035;-74
2022/12/05 04:33:04;;;;;;;7.03;2.42;;;;;;;0.49;100.00;101749.94;5019393;28;20033;-74
2022/12/05 04:36:12;;;;;;;4.05;1.80;;;;;;;0.67;100.00;101768.38;5019141;28;20376;-74
2022/12/05 04:38:54;;;;;;;6.05;3.70;;;;;;;0.62;100.00;101772.13;5018754;28;20045;-74
2022/12/05 04:41:27;;;;;;;8.18;3.63;;;;;;;0.53;100.00;101761.19;5020079;28;20037;-74
2022/12/05 04:43:54;;;;;;;8.00;3.55;;;;;;;0.55;100.00;101770.75;5003096;28;20120;-74
2022/12/05 04:46:20;;;;;;;8.43;3.88;;;;;;;0.60;100.00;101781.09;5002728;28;20041;-74
2022/12/05 04:48:51;;;;;;;7.47;3.40;;;;;;;0.73;100.00;101776.81;5035459;28;20025;-74
2022/12/05 04:51:21;;;;;;;6.75;3.75;;;;;;;0.94;100.00;101771.22;5002628;28;20033;-75
2022/12/05 04:53:49;;;;;;;9.13;3.85;;;;;;;1.08;100.00;101776.56;5018736;28;20029;-74
2022/12/05 04:56:17;;;;;;;8.68;4.25;;;;;;;1.23;100.00;101786.25;5002709;28;20037;-74
2022/12/05 04:58:42;;;;;;;13.02;5.13;;;;;;;1.20;100.00;101781.16;5002625;28;20536;-74
2022/12/05 05:01:39;;;;;;;7.68;4.15;;;;;;;1.10;100.00;101785.28;5051739;28;20041;-74
2022/12/05 05:04:14;;;;;;;7.07;4.25;;;;;;;0.92;100.00;101781.06;5013694;28;20037;-74
2022/12/05 05:06:41;;;;;;;7.00;3.35;;;;;;;0.74;100.00;101778.53;5002269;28;20032;-74
2022/12/05 05:09:07;;;;;;;8.85;4.03;;;;;;;0.68;100.00;101772.72;5002356;28;20044;-74
2022/12/05 05:11:34;;;;;;;7.15;2.38;;;;;;;0.73;100.00;101781.25;5018199;28;20096;-74
2022/12/05 05:14:01;;;;;;;6.07;3.95;;;;;;;0.95;100.00;101779.06;5034894;28;20464;-74
2022/12/05 05:16:30;;;;;;;8.30;3.58;;;;;;;1.19;100.00;101768.88;5018526;28;20030;-74
2022/12/05 05:18:56;;;;;;;9.57;4.38;;;;;;;1.47;100.00;101799.00;5034752;28;20521;-75
2022/12/05 05:21:27;;;;;;;9.75;4.30;;;;;;;1.41;100.00;101810.00;5018456;28;20037;-75
2022/12/05 05:23:53;;;;;;;10.27;4.72;;;;;;;1.29;100.00;101777.09;5034991;28;20064;-74
2022/12/05 05:26:19;;;;;;;6.93;3.65;;;;;;;1.71;100.00;101808.13;5001637;28;20036;-75
2022/12/05 05:28:46;;;;;;;11.10;5.68;;;;;;;2.08;100.00;101799.72;5018289;28;20048;-74
2022/12/05 05:31:11;;;;;;;9.77;4.88;;;;;;;2.10;100.00;101805.81;5034504;28;20080;-75
2022/12/05 05:33:37;;;;;;;8.02;3.85;;;;;;;1.97;100.00;101811.84;5018148;28;20037;-75
2022/12/05 05:36:06;;;;;;;10.55;5.10;;;;;;;1.93;100.00;101802.41;5001883;28;20038;-75
2022/12/05 05:38:43;;;;;;;14.40;3.90;;;;;;;1.93;100.00;101799.75;5034179;28;20025;-74
2022/12/05 05:41:14;;;;;;;10.75;5.20;;;;;;;1.96;100.00;101804.00;5034425;28;20510;-74
2022/12/05 05:43:41;;;;;;;10.77;4.88;;;;;;;2.01;100.00;101806.34;5050721;28;20467;-74
2022/12/05 05:46:08;;;;;;;8.95;4.53;;;;;;;1.95;100.00;101812.91;5001584;28;20436;-74
2022/12/05 05:48:34;;;;;;;6.53;3.83;;;;;;;2.01;100.00;101807.19;5001515;28;20045;-74
2022/12/05 05:51:00;;;;;;;10.20;4.85;;;;;;;2.11;100.00;101808.34;5001592;28;20120;-74
2022/12/05 05:53:26;;;;;;;13.50;5.22;;;;;;;2.22;100.00;101815.63;5001578;28;20033;-74
2022/12/05 05:55:52;;;;;;;13.63;5.13;;;;;;;2.34;100.00;101811.38;5001443;28;20033;-74
2022/12/05 05:58:17;;;;;;;11.90;5.05;;;;;;;2.44;100.00;101816.97;5017783;28;20180;-74
2022/12/05 06:00:43;;;;;;;16.52;5.57;;;;;;;2.49;100.00;101810.41;5017649;28;20124;-74
2022/12/05 06:03:09;;;;;;;12.43;6.05;;;;;;;2.55;100.00;101819.78;5050342;28;20040;-74
2022/12/05 06:05:34;;;;;;;16.50;6.78;;;;;;;2.58;100.00;101823.06;5017574;28;20033;-74
2022/12/05 06:08:00;;;;;;;16.80;6.95;;;;;;;2.66;100.00;101829.72;5017637;28;20509;-74
2022/12/05 06:10:26;;;;;;;13.68;6.43;;;;;;;2.66;100.00;101830.56;5001133;28;20044;-74
2022/12/05 06:12:51;;;;;;;15.50;6.93;;;;;;;2.61;100.00;101833.50;5033455;28;20099;-75
2022/12/05 06:15:17;;;;;;;16.65;6.43;;;;;;;2.49;100.00;101815.72;5032871;28;20037;-74
2022/12/05 06:17:43;;;;;;;14.98;6.65;;;;;;;2.42;100.00;101825.00;5001011;28;20037;-74
2022/12/05 06:20:12;;;;;;;15.45;7.13;;;;;;;2.29;100.00;101824.06;5001874;28;20041;-74
2022/12/05 06:22:38;;;;;;;18.42;7.05;;;;;;;2.21;100.00;101824.56;5017219;28;20489;-74
2022/12/05 06:25:04;;;;;;;18.42;6.63;;;;;;;2.13;100.00;101825.03;5000907;28;20033;-74
2022/12/05 06:27:30;;;;;;;14.07;6.43;;;;;;;2.07;100.00;101820.09;5017163;28;20061;-74
2022/12/05 06:29:57;;;;;;;16.70;6.65;;;;;;;2.14;100.00;101837.38;5033686;28;20467;-74
2022/12/05 06:32:22;;;;;;;13.25;6.00;;;;;;;2.14;100.00;101836.47;5016566;28;20038;-76
2022/12/05 06:34:48;;;;;;;11.65;5.80;;;;;;;2.06;100.00;101839.59;5000870;28;20025;-76
2022/12/05 06:37:14;;;;;;;14.18;6.05;;;;;;;2.09;100.00;101841.22;5017106;28;20517;-75
2022/12/05 06:39:40;;;;;;;10.82;5.32;;;;;;;2.09;100.00;101850.06;5016843;28;20403;-74
2022/12/05 06:42:06;;;;;;;12.57;4.82;;;;;;;2.03;100.00;101846.91;5000335;28;20091;-74
2022/12/05 06:44:31;;;;;;;7.43;3.42;;;;;;;2.13;100.00;101838.28;5016879;28;20526;-75
2022/12/05 06:46:57;;;;;;;11.25;5.55;;;;;;;2.31;100.00;101851.38;5016497;28;20032;-76
2022/12/05 06:49:25;;;;;;;15.93;6.32;;;;;;;2.40;100.00;101864.91;5016888;28;20041;-76
2022/12/05 06:51:52;;;;;;;18.90;7.38;;;;;;;2.46;100.00;101858.38;5033058;28;20075;-76
2022/12/05 06:54:18;;;;;;;16.88;6.75;;;;;;;2.50;100.00;101864.34;5016763;28;20033;-74
2022/12/05 06:56:44;;;;;;;8.75;4.38;;;;;;;2.63;100.00;101868.78;5000218;28;20037;-73
2022/12/05 06:59:09;;;;;;;18.00;6.03;;;;;;;2.73;100.00;101860.25;5032906;28;20040;-73
2022/12/05 07:01:38;;;;;;;16.60;5.68;;;;;;;2.71;100.00;101876.25;5000162;28;20037;-75
2022/12/05 07:04:19;;;;;;;16.23;6.35;;;;;;;2.64;100.00;101873.13;5000431;28;20190;-75
2022/12/05 07:06:47;;;;;;;13.25;6.63;;;;;;;2.65;100.00;101871.34;5016650;28;20147;-75
2022/12/05 07:09:13;;;;;;;16.25;6.50;;;;;;;2.66;100.00;101875.69;5033143;28;20033;-75
2022/12/05 07:11:39;;;;;;;9.25;4.40;;;;;;;2.69;100.00;101877.31;5016028;28;20033;-74
2022/12/05 07:14:05;;;;;;;12.88;5.38;;;;;;;2.64;100.00;101875.78;5016092;28;20040;-75
2022/12/05 07:16:31;;;;;;;11.10;5.43;;;;;;;2.67;100.00;101887.16;5016463;28;20034;-75
2022/12/05 07:18:57;;;;;;;12.00;4.78;;;;;;;2.67;100.00;101874.75;5015993;28;20101;-75
2022/12/05 07:21:23;;;;;;;8.25;3.63;;;;;;;2.71;100.00;101881.56;5000051;28;20503;-75
2022/12/05 07:23:49;;;;;;;12.57;5.30;;;;;;;2.79;100.00;101886.41;5032233;28;20069;-74
2022/12/05 07:26:18;;;;;;;15.35;6.22;;;;;;;2.60;100.00;101866.31;5032435;28;20136;-75
2022/12/05 07:28:44;;;;;;;16.63;5.70;;;;;;;2.64;100.00;101893.53;5032114;28;20060;-76
2022/12/05 07:31:13;;;;;;;12.45;5.10;;;;;;;2.57;100.00;101886.91;5015740;28;20029;-75
2022/12/05 07:33:39;;;;;;;15.52;5.78;;;;;;;2.48;100.00;101884.81;4999553;28;20403;-75
2022/12/05 07:36:13;;;;;;;12.32;5.05;;;;;;;2.45;100.00;101896.47;4999762;28;20044;-75
2022/12/05 07:38:40;;;;;;;10.88;5.43;;;;;;;2.43;100.00;101885.09;4999883;28;20041;-74
2022/12/05 07:41:13;;;;;;;10.23;4.82;;;;;;;2.50;100.00;101896.22;4999679;28;20044;-75
2022/12/05 07:43:40;;;;;;;12.50;6.20;;;;;;;2.49;100.00;101902.44;5015910;28;20095;-74
2022/12/05 07:46:06;;;;;;;12.45;4.97;;;;;;;2.52;100.00;101904.94;5015878;28;20040;-75
2022/12/05 07:48:32;;;;;;;10.68;3.72;;;;;;;2.52;100.00;101905.78;5015530;28;20038;-74
2022/12/05 07:51:03;;;;;;;10.50;4.65;;;;;;;2.59;100.00;101912.44;4999702;28;20402;-75
2022/12/05 07:53:30;;;;;;;15.07;6.70;;;;;;;2.63;100.00;101911.28;4999437;28;20053;-75
2022/12/05 07:56:01;;;;;;;13.00;5.32;;;;;;;2.71;100.00;101918.75;5016265;28;20060;-75
2022/12/05 07:58:28;;;;;;;10.30;5.15;;;;;;;2.81;100.00;101927.00;4999708;28;20550;-75
2022/12/05 08:00:54;;;;;;;16.08;5.88;;;;;;;2.79;100.00;101926.25;5032409;28;20072;-74
2022/12/05 08:03:19;;;;;;;12.23;5.30;;;;;;;2.77;100.00;101928.97;4999571;28;20065;-75
2022/12/05 08:05:45;;;;;;;14.13;6.00;;;;;;;2.79;100.00;101940.38;5032102;28;20108;-75
2022/12/05 08:08:11;;;;;;;12.50;5.15;;;;;;;2.76;100.00;101932.59;4999690;28;20175;-75
2022/12/05 08:10:36;;;;;;;18.23;6.45;;;;;;;2.75;100.00;101938.00;5032300;28;20456;-74
2022/12/05 08:13:02;;;;;;;12.32;5.60;;;;;;;2.71;100.00;101945.31;4999455;28;20309;-75
2022/12/05 08:15:28;;;;;;;15.68;5.50;;;;;;;2.61;100.00;101950.34;4999044;28;20037;-74
2022/12/05 08:17:53;;;;;;;11.60;5.28;;;;;;;2.48;100.00;101936.09;5015615;28;20422;-74
2022/12/05 08:20:19;;;;;;;18.63;5.40;;;;;;;2.55;100.00;101949.88;5015254;28;20028;-78
2022/12/05 08:22:45;;;;;;;13.57;5.47;;;;;;;2.66;100.00;101957.19;4999437;28;20132;-78
2022/12/05 08:25:10;;;;;;;16.95;5.97;;;;;;;2.72;100.00;101956.78;5031833;28;20087;-77
2022/12/05 08:27:36;;;;;;;12.40;5.53;;;;;;;2.72;100.00;101946.16;5031798;28;20464;-78
2022/12/05 08:30:02;;;;;;;18.08;5.95;;;;;;;2.89;100.00;101961.06;5015135;28;20531;-78
2022/12/05 08:32:28;;;;;;;17.55;6.15;;;;;;;2.94;100.00;101961.59;5015586;28;20483;-78
2022/12/05 08:34:54;;;;;;;18.63;6.53;;;;;;;3.01;100.00;101963.78;5015317;28;20460;-78
2022/12/05 08:37:19;;;;;;;11.75;4.82;;;;;;;3.08;100.00;101959.78;5015511;28;20364;-77
2022/12/05 08:39:45;;;;;;;12.80;5.45;;;;;;;3.14;100.00;101957.69;5033709;28;20052;-78
2022/12/05 08:42:11;;;;;;;12.15;6.10;;;;;;;3.00;100.00;101951.44;5035423;28;20060;-79
2022/12/05 08:44:36;;;;;;;14.93;5.63;;;;;;;2.89;100.00;101961.91;5035476;28;20068;-79
2022/12/05 08:47:02;;;;;;;10.35;4.85;;;;;;;2.86;100.00;101967.41;5051572;28;20460;-78
2022/12/05 08:49:28;;;;;;;10.13;4.65;;;;;;;2.88;100.00;101967.31;5035346;28;20036;-79
2022/12/05 08:51:53;;;;;;;15.32;5.95;;;;;;;2.78;100.00;101977.63;5018960;28;20130;-78
2022/12/05 08:54:19;;;;;;;13.38;5.22;;;;;;;2.59;100.00;101973.50;5035064;28;20037;-78
2022/12/05 08:56:45;;;;;;;11.25;4.70;;;;;;;2.50;100.00;101982.00;5035172;28;20026;-78
2022/12/05 08:59:10;;;;;;;10.77;4.35;;;;;;;2.46;100.00;101967.22;5035197;28;20030;-78
2022/12/05 09:01:37;;;;;;;6.78;3.05;;;;;;;2.56;100.00;101976.31;5034816;28;20097;-77
2022/12/05 09:04:04;;;;;;;11.82;5.43;;;;;;;2.72;100.00;101978.03;5035068;28;20498;-77
2022/12/05 09:06:31;;;;;;;9.98;4.38;;;;;;;2.72;100.00;101973.56;5035783;28;20479;-78
2022/12/05 09:09:03;;;;;;;12.43;4.97;;;;;;;2.84;100.00;101982.59;5002490;28;20128;-78
2022/12/05 09:11:31;;;;;;;13.05;4.53;;;;;;;3.00;100.00;101983.34;5034635;28;20472;-78
2022/12/05 09:13:58;;;;;;;13.00;5.38;;;;;;;3.07;100.00;101981.16;5002574;28;20060;-78
2022/12/05 09:16:28;;;;;;;10.35;4.80;;;;;;;3.20;100.00;101979.44;5034960;28;20029;-78
2022/12/05 09:18:54;;;;;;;11.20;4.68;;;;;;;3.39;100.00;101983.56;5002361;28;20044;-78
2022/12/05 09:21:23;;;;;;;3.97;2.80;;;;;;;3.68;100.00;101992.31;5034785;28;20037;-78
2022/12/05 09:23:49;;;;;;;15.82;5.70;;;;;;;3.96;100.00;101980.66;5018477;28;20073;-78
2022/12/05 09:26:17;;;;;;;5.72;3.25;;;;;;;4.09;100.00;101988.69;5018162;28;20128;-78
2022/12/05 09:28:43;;;;;;;11.95;4.68;;;;;;;4.03;100.00;101978.44;5018323;28;20105;-78
2022/12/05 09:31:18;;;;;;;15.32;5.88;;;;;;;3.90;100.00;101986.41;5034602;28;20052;-78
2022/12/05 09:33:44;;;;;;;13.18;5.60;;;;;;;3.79;100.00;101987.13;5034670;28;20030;-78
2022/12/05 09:36:16;;;;;;;13.20;5.93;;;;;;;3.56;100.00;101979.78;5034662;28;20033;-78
2022/12/05 09:38:42;;;;;;;12.18;5.47;;;;;;;3.45;100.00;101991.97;5034534;28;20064;-79
2022/12/05 09:41:20;;;;;;;16.60;5.95;;;;;;;3.34;100.00;101991.81;5034535;28;20049;-78
2022/12/05 09:44:15;;;;;;;15.52;5.82;;;;;;;3.55;100.00;102004.66;5018175;28;20037;-78
2022/12/05 09:47:21;;;;;;;14.10;5.55;;;;;;;4.28;100.00;102002.44;5034226;28;20037;-78
2022/12/05 09:49:50;;;;;;;15.60;6.32;;;;;;;4.16;100.00;101987.31;5023485;28;20041;-78
2022/12/05 09:52:32;;;;;;;15.45;7.18;;;;;;;4.11;100.00;101997.41;5034217;28;20057;-78
2022/12/05 09:55:11;;;;;;;11.73;5.00;;;;;;;3.80;100.00;102002.13;5003000;28;20037;-78
2022/12/05 09:57:41;;;;;;;9.43;4.32;;;;;;;3.73;100.00;102000.81;5034275;28;20128;-78
2022/12/05 10:00:09;;;;;;;8.68;3.95;;;;;;;3.77;100.00;101999.66;5034200;28;20030;-78
2022/12/05 10:02:35;;;;;;;5.70;3.08;;;;;;;3.90;100.00;101999.72;5001357;28;20426;-78
2022/12/05 10:05:10;;;;;;;8.63;3.28;;;;;;;4.00;100.00;101973.34;5033800;28;20514;-77
2022/12/05 10:08:03;;;;;;;8.75;4.10;;;;;;;4.33;100.00;101997.66;5001905;28;20029;-78
2022/12/05 10:11:00;;;;;;;6.10;3.25;;;;;;;4.59;100.00;101984.34;5033571;28;20430;-78
2022/12/05 10:13:43;;;;;;;4.90;2.92;;;;;;;5.37;100.00;101962.78;5017069;28;20464;-78
2022/12/05 10:16:18;;;;;;;5.72;3.08;;;;;;;6.69;100.00;101979.47;5017469;28;20037;-78
2022/12/05 10:18:56;;;;;;;4.93;4.00;;;;;;;7.71;100.00;101993.59;5017328;28;20034;-78
2022/12/05 10:21:33;;;;;;;4.18;2.83;;;;;;;7.27;100.00;102001.56;5033814;28;20041;-78
2022/12/05 10:24:01;;;;;;;5.00;3.10;;;;;;;6.72;100.00;102006.00;5033619;28;20030;-78
2022/12/05 10:26:32;;;;;;;8.48;3.35;;;;;;;6.70;100.00;101999.06;5000872;28;20037;-78
2022/12/05 10:29:22;;;;;;;2.83;2.15;;;;;;;6.95;100.00;101995.28;5001430;28;20491;-78
2022/12/05 10:31:48;;;;;;;5.40;2.65;;;;;;;7.99;100.00;101999.31;5034721;28;20040;-78
2022/12/05 10:34:37;;;;;;;7.13;4.60;;;;;;;9.21;99.58;102006.69;5000758;28;20036;-78
2022/12/05 10:37:18;;;;;;;8.98;3.58;;;;;;;9.80;96.47;102007.66;5033120;28;20036;-77
2022/12/05 10:39:44;;;;;;;6.28;3.42;;;;;;;9.21;98.29;101998.63;5033308;28;20036;-78
2022/12/05 10:42:26;;;;;;;6.38;3.55;;;;;;;8.83;100.00;102010.06;5033531;28;20037;-78
2022/12/05 10:44:57;;;;;;;5.60;3.40;;;;;;;9.53;98.42;102013.69;5017740;28;20041;-77
2022/12/05 10:47:22;;;;;;;6.32;3.58;;;;;;;10.35;89.61;102007.94;5033051;28;20036;-78
2022/12/05 10:49:49;;;;;;;8.27;3.55;;;;;;;10.30;91.34;102020.97;5033069;28;20112;-78
2022/12/05 10:52:16;;;;;;;5.22;2.85;;;;;;;10.82;89.50;102010.66;5000628;28;20045;-78
2022/12/05 10:54:58;;;;;;;5.25;3.20;;;;;;;11.83;86.87;102016.09;5016642;28;20093;-77
2022/12/05 10:57:27;;;;;;;5.68;2.45;;;;;;;11.22;88.61;102006.84;5016660;28;20041;-78
2022/12/05 10:59:53;;;;;;;5.07;2.67;;;;;;;10.26;85.43;102012.28;5034109;28;20036;-78
2022/12/05 11:02:31;;;;;;;5.18;2.67;;;;;;;10.23;88.56;102014.44;5032577;28;20100;-77
2022/12/05 11:04:57;;;;;;;7.00;3.20;;;;;;;11.30;87.04;102006.06;5032587;28;20056;-78
2022/12/05 11:07:33;;;;;;;5.45;3.10;;;;;;;12.05;79.88;102006.72;5049316;28;20030;-77
2022/12/05 11:10:00;;;;;;;4.05;2.50;;;;;;;12.14;74.84;101996.84;5016578;28;20033;-77
2022/12/05 11:12:26;;;;;;;7.75;3.03;;;;;;;11.99;77.12;101994.72;5016157;28;20060;-77
2022/12/05 11:14:59;;;;;;;4.25;2.33;;;;;;;11.80;75.14;101995.69;5032808;28;20048;-77
2022/12/05 11:17:33;;;;;;;4.72;2.28;;;;;;;10.86;79.74;101995.91;5016414;28;20068;-77
2022/12/05 11:19:59;;;;;;;3.90;2.40;;;;;;;9.97;84.53;101998.88;5049328;28;20083;-77
2022/12/05 11:22:33;;;;;;;4.75;2.10;;;;;;;9.76;86.69;101998.16;5033464;28;20033;-77
2022/12/05 11:24:59;;;;;;;3.50;2.35;;;;;;;9.00;89.81;101999.56;5032683;28;20041;-77
2022/12/05 11:27:33;;;;;;;8.00;3.10;;;;;;;8.85;93.22;102002.72;5049142;28;20529;-77
2022/12/05 11:30:03;;;;;;;4.57;2.72;;;;;;;9.04;91.63;101997.44;5015899;28;20029;-77
2022/12/05 11:32:31;;;;;;;3.78;3.03;;;;;;;8.74;93.73;101999.16;5000030;28;20060;-78
2022/12/05 11:35:12;;;;;;;5.57;2.25;;;;;;;8.30;97.78;101994.91;5016082;28;20464;-77
2022/12/05 11:37:57;;;;;;;2.00;1.42;;;;;;;7.84;100.00;102001.47;5016232;28;20448;-77
2022/12/05 11:40:37;;;;;;;5.57;1.88;;;;;;;7.17;100.00;101983.72;5032172;28;20045;-77